sensor_id;sensor_type;location;lat;lon;timestamp;P1;durP1;ratioP1;P2;durP2;ratioP2
74541;SDS011;63015;45.378;20.360;2023-06-22T00:01:56;11.15;;;7.55;;
74541;SDS011;63015;45.378;20.360;2023-06-22T00:03:57;9.70;;;7.22;;
74541;SDS011;63015;45.378;20.360;2023-06-22T00:05:57;10.18;;;7.80;;
74541;SDS011;63015;45.378;20.360;2023-06-22T00:08:01;13.15;;;8.23;;
74541;SDS011;63015;45.378;20.360;2023-06-22T00:10:03;13.75;;;8.18;;
74541;SDS011;63015;45.378;20.360;2023-06-22T00:12:04;12.70;;;8.98;;
74541;SDS011;63015;45.378;20.360;2023-06-22T00:14:05;11.77;;;7.82;;
74541;SDS011;63015;45.378;20.360;2023-06-22T00:16:06;10.88;;;8.60;;
74541;SDS011;63015;45.378;20.360;2023-06-22T00:18:07;10.73;;;8.25;;
74541;SDS011;63015;45.378;20.360;2023-06-22T00:20:09;10.82;;;7.82;;
74541;SDS011;63015;45.378;20.360;2023-06-22T00:22:10;13.63;;;8.05;;
74541;SDS011;63015;45.378;20.360;2023-06-22T00:24:11;11.65;;;8.75;;
74541;SDS011;63015;45.378;20.360;2023-06-22T00:26:11;14.50;;;9.35;;
74541;SDS011;63015;45.378;20.360;2023-06-22T00:28:12;16.20;;;9.88;;
74541;SDS011;63015;45.378;20.360;2023-06-22T00:30:13;16.92;;;9.77;;
74541;SDS011;63015;45.378;20.360;2023-06-22T00:32:15;13.98;;;9.27;;
74541;SDS011;63015;45.378;20.360;2023-06-22T00:34:17;23.85;;;9.43;;
74541;SDS011;63015;45.378;20.360;2023-06-22T00:36:18;12.00;;;9.73;;
74541;SDS011;63015;45.378;20.360;2023-06-22T00:38:19;12.50;;;10.10;;
74541;SDS011;63015;45.378;20.360;2023-06-22T00:40:20;15.45;;;9.15;;
74541;SDS011;63015;45.378;20.360;2023-06-22T00:42:22;12.43;;;8.90;;
74541;SDS011;63015;45.378;20.360;2023-06-22T00:44:23;15.88;;;9.63;;
74541;SDS011;63015;45.378;20.360;2023-06-22T00:46:25;16.42;;;9.50;;
74541;SDS011;63015;45.378;20.360;2023-06-22T00:48:25;11.45;;;9.05;;
74541;SDS011;63015;45.378;20.360;2023-06-22T00:50:27;13.82;;;9.55;;
74541;SDS011;63015;45.378;20.360;2023-06-22T00:52:33;14.93;;;9.52;;
74541;SDS011;63015;45.378;20.360;2023-06-22T00:54:36;14.07;;;9.13;;
74541;SDS011;63015;45.378;20.360;2023-06-22T00:56:37;15.27;;;9.48;;
74541;SDS011;63015;45.378;20.360;2023-06-22T00:58:37;13.23;;;8.98;;
74541;SDS011;63015;45.378;20.360;2023-06-22T01:00:41;13.10;;;9.80;;
74541;SDS011;63015;45.378;20.360;2023-06-22T01:02:42;11.23;;;8.65;;
74541;SDS011;63015;45.378;20.360;2023-06-22T01:04:45;11.18;;;8.77;;
74541;SDS011;63015;45.378;20.360;2023-06-22T01:07:31;11.70;;;9.05;;
74541;SDS011;63015;45.378;20.360;2023-06-22T01:09:17;12.82;;;8.45;;
74541;SDS011;63015;45.378;20.360;2023-06-22T01:15:57;13.15;;;7.70;;
74541;SDS011;63015;45.378;20.360;2023-06-22T01:18:03;12.23;;;7.20;;
74541;SDS011;63015;45.378;20.360;2023-06-22T01:20:06;14.10;;;8.80;;
74541;SDS011;63015;45.378;20.360;2023-06-22T01:22:10;12.50;;;8.35;;
74541;SDS011;63015;45.378;20.360;2023-06-22T01:24:27;12.63;;;7.88;;
74541;SDS011;63015;45.378;20.360;2023-06-22T01:26:41;15.48;;;8.80;;
74541;SDS011;63015;45.378;20.360;2023-06-22T01:28:50;13.63;;;7.72;;
74541;SDS011;63015;45.378;20.360;2023-06-22T01:30:54;13.40;;;7.97;;
74541;SDS011;63015;45.378;20.360;2023-06-22T01:33:05;11.30;;;7.88;;
74541;SDS011;63015;45.378;20.360;2023-06-22T01:35:07;11.85;;;7.85;;
74541;SDS011;63015;45.378;20.360;2023-06-22T01:37:09;12.30;;;8.18;;
74541;SDS011;63015;45.378;20.360;2023-06-22T01:39:10;17.88;;;9.02;;
74541;SDS011;63015;45.378;20.360;2023-06-22T01:41:12;15.38;;;7.70;;
74541;SDS011;63015;45.378;20.360;2023-06-22T01:43:13;13.32;;;8.18;;
74541;SDS011;63015;45.378;20.360;2023-06-22T01:45:15;15.02;;;8.65;;
74541;SDS011;63015;45.378;20.360;2023-06-22T01:47:16;12.13;;;7.90;;
74541;SDS011;63015;45.378;20.360;2023-06-22T01:49:17;11.95;;;7.72;;
74541;SDS011;63015;45.378;20.360;2023-06-22T01:51:18;14.05;;;8.57;;
74541;SDS011;63015;45.378;20.360;2023-06-22T01:53:22;12.10;;;7.38;;
74541;SDS011;63015;45.378;20.360;2023-06-22T01:55:25;11.77;;;7.25;;
74541;SDS011;63015;45.378;20.360;2023-06-22T01:57:26;12.35;;;6.95;;
74541;SDS011;63015;45.378;20.360;2023-06-22T02:01:42;11.45;;;7.80;;
74541;SDS011;63015;45.378;20.360;2023-06-22T02:04:08;10.25;;;5.72;;
74541;SDS011;63015;45.378;20.360;2023-06-22T02:06:14;13.48;;;7.20;;
74541;SDS011;63015;45.378;20.360;2023-06-22T02:08:30;13.07;;;7.57;;
74541;SDS011;63015;45.378;20.360;2023-06-22T02:10:36;12.23;;;6.88;;
74541;SDS011;63015;45.378;20.360;2023-06-22T02:12:38;16.35;;;7.72;;
74541;SDS011;63015;45.378;20.360;2023-06-22T02:14:41;11.50;;;7.35;;
74541;SDS011;63015;45.378;20.360;2023-06-22T02:16:43;10.43;;;7.47;;
74541;SDS011;63015;45.378;20.360;2023-06-22T02:18:48;11.88;;;7.13;;
74541;SDS011;63015;45.378;20.360;2023-06-22T02:20:52;21.95;;;7.63;;
74541;SDS011;63015;45.378;20.360;2023-06-22T02:22:53;10.65;;;7.15;;
74541;SDS011;63015;45.378;20.360;2023-06-22T02:24:53;11.50;;;7.10;;
74541;SDS011;63015;45.378;20.360;2023-06-22T02:26:54;14.85;;;7.40;;
74541;SDS011;63015;45.378;20.360;2023-06-22T02:28:55;14.52;;;7.75;;
74541;SDS011;63015;45.378;20.360;2023-06-22T02:30:55;13.57;;;7.75;;
74541;SDS011;63015;45.378;20.360;2023-06-22T02:32:56;14.45;;;7.95;;
74541;SDS011;63015;45.378;20.360;2023-06-22T02:35:00;12.25;;;6.70;;
74541;SDS011;63015;45.378;20.360;2023-06-22T02:37:04;10.95;;;7.63;;
74541;SDS011;63015;45.378;20.360;2023-06-22T02:39:06;13.18;;;7.93;;
74541;SDS011;63015;45.378;20.360;2023-06-22T02:41:06;16.58;;;7.82;;
74541;SDS011;63015;45.378;20.360;2023-06-22T02:43:07;10.25;;;7.05;;
74541;SDS011;63015;45.378;20.360;2023-06-22T02:45:08;10.77;;;7.50;;
74541;SDS011;63015;45.378;20.360;2023-06-22T02:47:10;10.93;;;6.82;;
74541;SDS011;63015;45.378;20.360;2023-06-22T02:49:11;15.18;;;8.10;;
74541;SDS011;63015;45.378;20.360;2023-06-22T02:51:12;10.50;;;6.68;;
74541;SDS011;63015;45.378;20.360;2023-06-22T02:53:13;12.63;;;7.88;;
74541;SDS011;63015;45.378;20.360;2023-06-22T02:55:18;11.57;;;7.22;;
74541;SDS011;63015;45.378;20.360;2023-06-22T02:57:26;9.98;;;5.95;;
74541;SDS011;63015;45.378;20.360;2023-06-22T02:59:27;15.73;;;7.57;;
74541;SDS011;63015;45.378;20.360;2023-06-22T03:01:34;13.15;;;8.30;;
74541;SDS011;63015;45.378;20.360;2023-06-22T03:03:43;14.50;;;7.22;;
74541;SDS011;63015;45.378;20.360;2023-06-22T03:05:44;12.80;;;6.75;;
74541;SDS011;63015;45.378;20.360;2023-06-22T03:07:45;9.85;;;6.30;;
74541;SDS011;63015;45.378;20.360;2023-06-22T03:09:45;16.30;;;7.82;;
74541;SDS011;63015;45.378;20.360;2023-06-22T03:11:47;13.18;;;5.85;;
74541;SDS011;63015;45.378;20.360;2023-06-22T03:13:48;12.02;;;6.60;;
74541;SDS011;63015;45.378;20.360;2023-06-22T03:15:48;14.40;;;7.82;;
74541;SDS011;63015;45.378;20.360;2023-06-22T03:17:49;10.23;;;5.95;;
74541;SDS011;63015;45.378;20.360;2023-06-22T03:19:50;11.15;;;6.32;;
74541;SDS011;63015;45.378;20.360;2023-06-22T03:21:51;13.77;;;7.63;;
74541;SDS011;63015;45.378;20.360;2023-06-22T03:23:51;15.25;;;8.15;;
74541;SDS011;63015;45.378;20.360;2023-06-22T03:25:52;11.88;;;7.40;;
74541;SDS011;63015;45.378;20.360;2023-06-22T03:27:55;11.52;;;7.18;;
74541;SDS011;63015;45.378;20.360;2023-06-22T03:29:57;15.13;;;7.55;;
74541;SDS011;63015;45.378;20.360;2023-06-22T03:31:58;12.30;;;8.13;;
74541;SDS011;63015;45.378;20.360;2023-06-22T03:33:59;16.27;;;7.70;;
74541;SDS011;63015;45.378;20.360;2023-06-22T03:36:00;12.50;;;7.68;;
74541;SDS011;63015;45.378;20.360;2023-06-22T03:38:00;10.48;;;7.47;;
74541;SDS011;63015;45.378;20.360;2023-06-22T03:40:01;14.43;;;7.85;;
74541;SDS011;63015;45.378;20.360;2023-06-22T03:42:06;15.65;;;7.95;;
74541;SDS011;63015;45.378;20.360;2023-06-22T03:44:07;16.27;;;9.07;;
74541;SDS011;63015;45.378;20.360;2023-06-22T03:46:12;17.50;;;10.77;;
74541;SDS011;63015;45.378;20.360;2023-06-22T03:48:13;14.30;;;9.30;;
74541;SDS011;63015;45.378;20.360;2023-06-22T03:50:13;17.60;;;9.68;;
74541;SDS011;63015;45.378;20.360;2023-06-22T03:52:15;14.70;;;8.63;;
74541;SDS011;63015;45.378;20.360;2023-06-22T03:54:15;10.77;;;7.95;;
74541;SDS011;63015;45.378;20.360;2023-06-22T03:56:16;14.70;;;7.75;;
74541;SDS011;63015;45.378;20.360;2023-06-22T03:58:20;11.93;;;7.53;;
74541;SDS011;63015;45.378;20.360;2023-06-22T04:00:21;10.23;;;7.35;;
74541;SDS011;63015;45.378;20.360;2023-06-22T04:02:23;12.02;;;8.70;;
74541;SDS011;63015;45.378;20.360;2023-06-22T04:04:24;11.57;;;7.53;;
74541;SDS011;63015;45.378;20.360;2023-06-22T04:06:25;11.63;;;7.53;;
74541;SDS011;63015;45.378;20.360;2023-06-22T04:08:26;11.73;;;8.35;;
74541;SDS011;63015;45.378;20.360;2023-06-22T04:10:27;13.40;;;8.45;;
74541;SDS011;63015;45.378;20.360;2023-06-22T04:12:27;13.75;;;8.77;;
74541;SDS011;63015;45.378;20.360;2023-06-22T04:14:28;12.20;;;8.23;;
74541;SDS011;63015;45.378;20.360;2023-06-22T04:16:29;12.93;;;8.15;;
74541;SDS011;63015;45.378;20.360;2023-06-22T04:18:29;11.18;;;7.80;;
74541;SDS011;63015;45.378;20.360;2023-06-22T04:20:31;12.82;;;7.70;;
74541;SDS011;63015;45.378;20.360;2023-06-22T04:22:32;12.02;;;8.05;;
74541;SDS011;63015;45.378;20.360;2023-06-22T04:24:33;12.43;;;8.35;;
74541;SDS011;63015;45.378;20.360;2023-06-22T04:26:34;12.00;;;8.10;;
74541;SDS011;63015;45.378;20.360;2023-06-22T04:28:37;12.65;;;8.50;;
74541;SDS011;63015;45.378;20.360;2023-06-22T04:30:38;12.00;;;8.30;;
74541;SDS011;63015;45.378;20.360;2023-06-22T04:32:46;13.60;;;8.15;;
74541;SDS011;63015;45.378;20.360;2023-06-22T04:34:56;12.70;;;8.18;;
74541;SDS011;63015;45.378;20.360;2023-06-22T04:36:57;12.65;;;9.18;;
74541;SDS011;63015;45.378;20.360;2023-06-22T04:38:57;11.32;;;8.68;;
74541;SDS011;63015;45.378;20.360;2023-06-22T04:40:58;14.15;;;8.27;;
74541;SDS011;63015;45.378;20.360;2023-06-22T04:43:02;14.95;;;8.20;;
74541;SDS011;63015;45.378;20.360;2023-06-22T04:45:03;10.93;;;8.05;;
74541;SDS011;63015;45.378;20.360;2023-06-22T04:47:04;11.82;;;8.18;;
74541;SDS011;63015;45.378;20.360;2023-06-22T04:49:08;11.20;;;7.53;;
74541;SDS011;63015;45.378;20.360;2023-06-22T04:51:12;10.10;;;7.72;;
74541;SDS011;63015;45.378;20.360;2023-06-22T04:53:13;12.75;;;8.48;;
74541;SDS011;63015;45.378;20.360;2023-06-22T04:55:14;10.50;;;7.72;;
74541;SDS011;63015;45.378;20.360;2023-06-22T04:57:18;12.13;;;8.18;;
74541;SDS011;63015;45.378;20.360;2023-06-22T04:59:19;10.32;;;7.80;;
74541;SDS011;63015;45.378;20.360;2023-06-22T05:01:19;12.35;;;8.32;;
74541;SDS011;63015;45.378;20.360;2023-06-22T05:03:22;11.20;;;7.88;;
74541;SDS011;63015;45.378;20.360;2023-06-22T05:05:23;11.02;;;8.00;;
74541;SDS011;63015;45.378;20.360;2023-06-22T05:07:24;11.52;;;7.15;;
74541;SDS011;63015;45.378;20.360;2023-06-22T05:09:25;10.00;;;7.43;;
74541;SDS011;63015;45.378;20.360;2023-06-22T05:11:26;10.65;;;7.57;;
74541;SDS011;63015;45.378;20.360;2023-06-22T05:13:28;10.45;;;7.95;;
74541;SDS011;63015;45.378;20.360;2023-06-22T05:15:28;11.18;;;7.63;;
74541;SDS011;63015;45.378;20.360;2023-06-22T05:17:30;10.10;;;6.65;;
74541;SDS011;63015;45.378;20.360;2023-06-22T05:19:31;13.35;;;7.10;;
74541;SDS011;63015;45.378;20.360;2023-06-22T05:21:33;11.60;;;7.25;;
74541;SDS011;63015;45.378;20.360;2023-06-22T05:23:34;11.02;;;7.97;;
74541;SDS011;63015;45.378;20.360;2023-06-22T05:25:35;11.02;;;7.47;;
74541;SDS011;63015;45.378;20.360;2023-06-22T05:27:36;11.48;;;8.07;;
74541;SDS011;63015;45.378;20.360;2023-06-22T05:29:40;9.93;;;7.60;;
74541;SDS011;63015;45.378;20.360;2023-06-22T05:31:42;10.50;;;7.45;;
74541;SDS011;63015;45.378;20.360;2023-06-22T05:33:43;10.32;;;7.72;;
74541;SDS011;63015;45.378;20.360;2023-06-22T05:35:44;10.90;;;6.88;;
74541;SDS011;63015;45.378;20.360;2023-06-22T05:37:45;12.38;;;7.75;;
74541;SDS011;63015;45.378;20.360;2023-06-22T05:39:45;10.00;;;7.20;;
74541;SDS011;63015;45.378;20.360;2023-06-22T05:41:46;12.95;;;7.60;;
74541;SDS011;63015;45.378;20.360;2023-06-22T05:43:47;9.52;;;7.63;;
74541;SDS011;63015;45.378;20.360;2023-06-22T05:45:48;9.55;;;7.93;;
74541;SDS011;63015;45.378;20.360;2023-06-22T05:47:49;9.18;;;6.88;;
74541;SDS011;63015;45.378;20.360;2023-06-22T05:49:49;11.45;;;7.20;;
74541;SDS011;63015;45.378;20.360;2023-06-22T05:51:50;9.38;;;7.05;;
74541;SDS011;63015;45.378;20.360;2023-06-22T05:53:50;11.35;;;7.53;;
74541;SDS011;63015;45.378;20.360;2023-06-22T05:55:51;10.00;;;8.02;;
74541;SDS011;63015;45.378;20.360;2023-06-22T05:57:52;11.73;;;7.40;;
74541;SDS011;63015;45.378;20.360;2023-06-22T05:59:52;11.70;;;7.75;;
74541;SDS011;63015;45.378;20.360;2023-06-22T06:01:54;11.00;;;7.55;;
74541;SDS011;63015;45.378;20.360;2023-06-22T06:03:54;10.35;;;8.07;;
74541;SDS011;63015;45.378;20.360;2023-06-22T06:05:55;11.55;;;7.03;;
74541;SDS011;63015;45.378;20.360;2023-06-22T06:07:56;8.98;;;7.00;;
74541;SDS011;63015;45.378;20.360;2023-06-22T06:09:57;11.05;;;7.20;;
74541;SDS011;63015;45.378;20.360;2023-06-22T06:11:57;9.02;;;7.07;;
74541;SDS011;63015;45.378;20.360;2023-06-22T06:13:58;8.90;;;7.50;;
74541;SDS011;63015;45.378;20.360;2023-06-22T06:15:59;17.00;;;7.80;;
74541;SDS011;63015;45.378;20.360;2023-06-22T06:17:59;10.05;;;7.82;;
74541;SDS011;63015;45.378;20.360;2023-06-22T06:20:00;14.52;;;8.23;;
74541;SDS011;63015;45.378;20.360;2023-06-22T06:22:01;22.02;;;8.45;;
74541;SDS011;63015;45.378;20.360;2023-06-22T06:24:01;10.02;;;7.50;;
74541;SDS011;63015;45.378;20.360;2023-06-22T06:26:02;12.88;;;7.40;;
74541;SDS011;63015;45.378;20.360;2023-06-22T06:28:07;14.60;;;7.57;;
74541;SDS011;63015;45.378;20.360;2023-06-22T06:30:07;10.60;;;7.10;;
74541;SDS011;63015;45.378;20.360;2023-06-22T06:32:08;8.50;;;7.28;;
74541;SDS011;63015;45.378;20.360;2023-06-22T06:34:09;12.55;;;7.35;;
74541;SDS011;63015;45.378;20.360;2023-06-22T06:36:10;9.95;;;7.72;;
74541;SDS011;63015;45.378;20.360;2023-06-22T06:38:11;9.85;;;7.25;;
74541;SDS011;63015;45.378;20.360;2023-06-22T06:40:12;8.00;;;7.03;;
74541;SDS011;63015;45.378;20.360;2023-06-22T06:42:13;10.70;;;6.80;;
74541;SDS011;63015;45.378;20.360;2023-06-22T06:44:14;8.77;;;7.13;;
74541;SDS011;63015;45.378;20.360;2023-06-22T06:46:15;9.65;;;7.72;;
74541;SDS011;63015;45.378;20.360;2023-06-22T06:48:15;11.80;;;7.75;;
74541;SDS011;63015;45.378;20.360;2023-06-22T06:50:17;9.52;;;7.47;;
74541;SDS011;63015;45.378;20.360;2023-06-22T06:52:18;12.73;;;7.00;;
74541;SDS011;63015;45.378;20.360;2023-06-22T06:54:20;10.50;;;7.65;;
74541;SDS011;63015;45.378;20.360;2023-06-22T06:56:20;14.05;;;7.53;;
74541;SDS011;63015;45.378;20.360;2023-06-22T06:58:21;11.30;;;7.78;;
74541;SDS011;63015;45.378;20.360;2023-06-22T07:00:23;9.13;;;7.53;;
74541;SDS011;63015;45.378;20.360;2023-06-22T07:02:23;9.55;;;7.45;;
74541;SDS011;63015;45.378;20.360;2023-06-22T07:06:26;11.05;;;7.07;;
74541;SDS011;63015;45.378;20.360;2023-06-22T07:08:29;9.32;;;7.00;;
74541;SDS011;63015;45.378;20.360;2023-06-22T07:10:30;9.02;;;6.82;;
74541;SDS011;63015;45.378;20.360;2023-06-22T07:12:31;9.02;;;7.47;;
74541;SDS011;63015;45.378;20.360;2023-06-22T07:14:31;9.05;;;7.05;;
74541;SDS011;63015;45.378;20.360;2023-06-22T07:16:32;10.73;;;7.35;;
74541;SDS011;63015;45.378;20.360;2023-06-22T07:18:33;12.32;;;7.10;;
74541;SDS011;63015;45.378;20.360;2023-06-22T07:20:34;9.95;;;6.82;;
74541;SDS011;63015;45.378;20.360;2023-06-22T07:22:34;9.45;;;7.20;;
74541;SDS011;63015;45.378;20.360;2023-06-22T07:24:35;9.38;;;7.32;;
74541;SDS011;63015;45.378;20.360;2023-06-22T07:26:37;8.55;;;7.30;;
74541;SDS011;63015;45.378;20.360;2023-06-22T07:28:38;9.45;;;7.32;;
74541;SDS011;63015;45.378;20.360;2023-06-22T07:30:40;9.70;;;7.05;;
74541;SDS011;63015;45.378;20.360;2023-06-22T07:32:41;10.75;;;7.32;;
74541;SDS011;63015;45.378;20.360;2023-06-22T07:34:42;11.02;;;6.70;;
74541;SDS011;63015;45.378;20.360;2023-06-22T07:36:44;9.15;;;7.18;;
74541;SDS011;63015;45.378;20.360;2023-06-22T07:38:45;9.43;;;6.68;;
74541;SDS011;63015;45.378;20.360;2023-06-22T07:40:46;10.55;;;6.60;;
74541;SDS011;63015;45.378;20.360;2023-06-22T07:42:47;9.60;;;6.53;;
74541;SDS011;63015;45.378;20.360;2023-06-22T07:44:53;13.13;;;6.82;;
74541;SDS011;63015;45.378;20.360;2023-06-22T07:46:54;8.68;;;6.75;;
74541;SDS011;63015;45.378;20.360;2023-06-22T07:48:55;9.68;;;6.88;;
74541;SDS011;63015;45.378;20.360;2023-06-22T07:50:57;8.70;;;6.45;;
74541;SDS011;63015;45.378;20.360;2023-06-22T07:52:57;11.30;;;6.50;;
74541;SDS011;63015;45.378;20.360;2023-06-22T07:54:58;11.13;;;6.20;;
74541;SDS011;63015;45.378;20.360;2023-06-22T07:56:59;14.23;;;6.63;;
74541;SDS011;63015;45.378;20.360;2023-06-22T07:58:59;8.15;;;6.88;;
74541;SDS011;63015;45.378;20.360;2023-06-22T08:01:02;10.13;;;5.95;;
74541;SDS011;63015;45.378;20.360;2023-06-22T08:03:03;8.75;;;6.53;;
74541;SDS011;63015;45.378;20.360;2023-06-22T08:05:05;9.20;;;7.10;;
74541;SDS011;63015;45.378;20.360;2023-06-22T08:07:08;10.52;;;6.13;;
74541;SDS011;63015;45.378;20.360;2023-06-22T08:09:09;10.50;;;7.10;;
74541;SDS011;63015;45.378;20.360;2023-06-22T08:11:10;12.48;;;6.32;;
74541;SDS011;63015;45.378;20.360;2023-06-22T08:13:11;7.50;;;6.57;;
74541;SDS011;63015;45.378;20.360;2023-06-22T08:15:12;8.63;;;6.68;;
74541;SDS011;63015;45.378;20.360;2023-06-22T08:17:12;8.30;;;6.25;;
74541;SDS011;63015;45.378;20.360;2023-06-22T08:19:13;10.77;;;6.85;;
74541;SDS011;63015;45.378;20.360;2023-06-22T08:21:14;10.40;;;7.10;;
74541;SDS011;63015;45.378;20.360;2023-06-22T08:23:14;7.88;;;6.80;;
74541;SDS011;63015;45.378;20.360;2023-06-22T08:25:15;8.20;;;6.72;;
74541;SDS011;63015;45.378;20.360;2023-06-22T08:27:16;11.50;;;7.53;;
74541;SDS011;63015;45.378;20.360;2023-06-22T08:29:18;9.02;;;6.72;;
74541;SDS011;63015;45.378;20.360;2023-06-22T08:31:20;8.88;;;6.00;;
74541;SDS011;63015;45.378;20.360;2023-06-22T08:33:20;8.30;;;6.38;;
74541;SDS011;63015;45.378;20.360;2023-06-22T08:35:23;7.82;;;6.30;;
74541;SDS011;63015;45.378;20.360;2023-06-22T08:37:24;7.13;;;6.28;;
74541;SDS011;63015;45.378;20.360;2023-06-22T08:39:30;8.75;;;7.30;;
74541;SDS011;63015;45.378;20.360;2023-06-22T08:41:31;13.13;;;6.38;;
74541;SDS011;63015;45.378;20.360;2023-06-22T08:43:31;50.92;;;9.50;;
74541;SDS011;63015;45.378;20.360;2023-06-22T08:45:32;9.32;;;6.65;;
74541;SDS011;63015;45.378;20.360;2023-06-22T08:47:33;9.13;;;6.45;;
74541;SDS011;63015;45.378;20.360;2023-06-22T08:49:33;7.20;;;6.30;;
74541;SDS011;63015;45.378;20.360;2023-06-22T08:51:34;8.02;;;6.25;;
74541;SDS011;63015;45.378;20.360;2023-06-22T08:53:35;10.50;;;6.45;;
74541;SDS011;63015;45.378;20.360;2023-06-22T08:55:36;35.08;;;8.98;;
74541;SDS011;63015;45.378;20.360;2023-06-22T08:57:37;8.65;;;7.10;;
74541;SDS011;63015;45.378;20.360;2023-06-22T08:59:39;9.52;;;6.72;;
74541;SDS011;63015;45.378;20.360;2023-06-22T09:01:40;12.52;;;6.53;;
74541;SDS011;63015;45.378;20.360;2023-06-22T09:03:41;8.27;;;6.93;;
74541;SDS011;63015;45.378;20.360;2023-06-22T09:05:42;9.15;;;6.70;;
74541;SDS011;63015;45.378;20.360;2023-06-22T09:07:42;11.68;;;6.78;;
74541;SDS011;63015;45.378;20.360;2023-06-22T09:09:43;8.38;;;6.70;;
74541;SDS011;63015;45.378;20.360;2023-06-22T09:11:44;10.35;;;7.18;;
74541;SDS011;63015;45.378;20.360;2023-06-22T09:13:44;12.63;;;6.82;;
74541;SDS011;63015;45.378;20.360;2023-06-22T09:15:46;7.80;;;7.00;;
74541;SDS011;63015;45.378;20.360;2023-06-22T09:17:47;10.00;;;7.13;;
74541;SDS011;63015;45.378;20.360;2023-06-22T09:19:47;8.88;;;7.35;;
74541;SDS011;63015;45.378;20.360;2023-06-22T09:21:48;8.93;;;6.75;;
74541;SDS011;63015;45.378;20.360;2023-06-22T09:23:49;10.20;;;6.95;;
74541;SDS011;63015;45.378;20.360;2023-06-22T09:25:53;7.97;;;7.18;;
74541;SDS011;63015;45.378;20.360;2023-06-22T09:27:53;8.23;;;7.38;;
74541;SDS011;63015;45.378;20.360;2023-06-22T09:29:54;13.55;;;7.55;;
74541;SDS011;63015;45.378;20.360;2023-06-22T09:31:55;9.70;;;7.07;;
74541;SDS011;63015;45.378;20.360;2023-06-22T09:33:56;11.95;;;7.25;;
74541;SDS011;63015;45.378;20.360;2023-06-22T09:35:56;10.85;;;6.85;;
74541;SDS011;63015;45.378;20.360;2023-06-22T09:37:57;11.27;;;7.05;;
74541;SDS011;63015;45.378;20.360;2023-06-22T09:39:58;8.40;;;7.32;;
74541;SDS011;63015;45.378;20.360;2023-06-22T09:41:59;16.85;;;8.32;;
74541;SDS011;63015;45.378;20.360;2023-06-22T09:44:00;11.27;;;7.53;;
74541;SDS011;63015;45.378;20.360;2023-06-22T09:46:01;9.77;;;7.88;;
74541;SDS011;63015;45.378;20.360;2023-06-22T09:48:02;11.27;;;8.15;;
74541;SDS011;63015;45.378;20.360;2023-06-22T09:50:03;10.23;;;7.75;;
74541;SDS011;63015;45.378;20.360;2023-06-22T09:52:04;10.23;;;7.38;;
74541;SDS011;63015;45.378;20.360;2023-06-22T09:54:05;11.07;;;7.68;;
74541;SDS011;63015;45.378;20.360;2023-06-22T09:56:05;11.57;;;7.90;;
74541;SDS011;63015;45.378;20.360;2023-06-22T09:58:06;8.63;;;7.30;;
74541;SDS011;63015;45.378;20.360;2023-06-22T10:00:07;10.07;;;7.95;;
74541;SDS011;63015;45.378;20.360;2023-06-22T10:02:13;11.40;;;7.38;;
74541;SDS011;63015;45.378;20.360;2023-06-22T10:04:14;8.07;;;7.28;;
74541;SDS011;63015;45.378;20.360;2023-06-22T10:06:14;9.00;;;6.97;;
74541;SDS011;63015;45.378;20.360;2023-06-22T10:08:15;9.32;;;6.00;;
74541;SDS011;63015;45.378;20.360;2023-06-22T10:10:16;10.07;;;6.38;;
74541;SDS011;63015;45.378;20.360;2023-06-22T10:12:17;10.00;;;7.72;;
74541;SDS011;63015;45.378;20.360;2023-06-22T10:14:17;14.90;;;8.35;;
74541;SDS011;63015;45.378;20.360;2023-06-22T10:16:18;13.77;;;7.82;;
74541;SDS011;63015;45.378;20.360;2023-06-22T10:18:19;15.68;;;7.28;;
74541;SDS011;63015;45.378;20.360;2023-06-22T10:20:19;12.23;;;7.43;;
74541;SDS011;63015;45.378;20.360;2023-06-22T10:24:22;12.75;;;8.02;;
74541;SDS011;63015;45.378;20.360;2023-06-22T10:26:23;8.90;;;6.28;;
74541;SDS011;63015;45.378;20.360;2023-06-22T10:28:23;8.88;;;5.05;;
74541;SDS011;63015;45.378;20.360;2023-06-22T10:30:24;13.02;;;7.32;;
74541;SDS011;63015;45.378;20.360;2023-06-22T10:32:25;11.52;;;6.70;;
74541;SDS011;63015;45.378;20.360;2023-06-22T10:36:28;8.07;;;4.65;;
74541;SDS011;63015;45.378;20.360;2023-06-22T10:38:29;10.98;;;6.47;;
74541;SDS011;63015;45.378;20.360;2023-06-22T10:40:30;12.23;;;6.65;;
74541;SDS011;63015;45.378;20.360;2023-06-22T10:42:31;12.02;;;6.22;;
74541;SDS011;63015;45.378;20.360;2023-06-22T10:44:31;11.68;;;7.00;;
74541;SDS011;63015;45.378;20.360;2023-06-22T10:46:32;10.50;;;7.20;;
74541;SDS011;63015;45.378;20.360;2023-06-22T10:48:33;7.60;;;4.97;;
74541;SDS011;63015;45.378;20.360;2023-06-22T10:50:34;9.93;;;5.70;;
74541;SDS011;63015;45.378;20.360;2023-06-22T10:52:34;9.45;;;7.00;;
74541;SDS011;63015;45.378;20.360;2023-06-22T10:54:35;9.15;;;7.13;;
74541;SDS011;63015;45.378;20.360;2023-06-22T10:56:36;9.13;;;6.07;;
74541;SDS011;63015;45.378;20.360;2023-06-22T10:58:37;8.35;;;6.57;;
74541;SDS011;63015;45.378;20.360;2023-06-22T11:00:38;11.25;;;6.70;;
74541;SDS011;63015;45.378;20.360;2023-06-22T11:02:38;9.63;;;6.55;;
74541;SDS011;63015;45.378;20.360;2023-06-22T11:04:39;9.20;;;6.05;;
74541;SDS011;63015;45.378;20.360;2023-06-22T11:06:40;11.27;;;6.03;;
74541;SDS011;63015;45.378;20.360;2023-06-22T11:08:43;8.68;;;6.65;;
74541;SDS011;63015;45.378;20.360;2023-06-22T11:10:44;12.65;;;6.45;;
74541;SDS011;63015;45.378;20.360;2023-06-22T11:12:45;10.05;;;6.72;;
74541;SDS011;63015;45.378;20.360;2023-06-22T11:14:45;9.13;;;6.60;;
74541;SDS011;63015;45.378;20.360;2023-06-22T11:16:46;7.35;;;4.60;;
74541;SDS011;63015;45.378;20.360;2023-06-22T11:18:47;12.15;;;6.68;;
74541;SDS011;63015;45.378;20.360;2023-06-22T11:20:47;8.43;;;6.43;;
74541;SDS011;63015;45.378;20.360;2023-06-22T11:22:49;9.07;;;6.35;;
74541;SDS011;63015;45.378;20.360;2023-06-22T11:24:50;11.07;;;6.30;;
74541;SDS011;63015;45.378;20.360;2023-06-22T11:26:50;10.48;;;5.72;;
74541;SDS011;63015;45.378;20.360;2023-06-22T11:28:51;8.43;;;6.35;;
74541;SDS011;63015;45.378;20.360;2023-06-22T11:30:51;13.48;;;6.75;;
74541;SDS011;63015;45.378;20.360;2023-06-22T11:32:52;10.50;;;6.75;;
74541;SDS011;63015;45.378;20.360;2023-06-22T11:34:53;10.45;;;6.55;;
74541;SDS011;63015;45.378;20.360;2023-06-22T11:36:53;10.23;;;5.95;;
74541;SDS011;63015;45.378;20.360;2023-06-22T11:38:54;7.72;;;5.13;;
74541;SDS011;63015;45.378;20.360;2023-06-22T11:40:55;9.15;;;6.60;;
74541;SDS011;63015;45.378;20.360;2023-06-22T11:42:55;8.80;;;6.60;;
74541;SDS011;63015;45.378;20.360;2023-06-22T11:44:56;8.30;;;5.05;;
74541;SDS011;63015;45.378;20.360;2023-06-22T11:46:57;9.32;;;6.68;;
74541;SDS011;63015;45.378;20.360;2023-06-22T11:48:57;10.50;;;6.45;;
74541;SDS011;63015;45.378;20.360;2023-06-22T11:50:58;13.95;;;6.57;;
74541;SDS011;63015;45.378;20.360;2023-06-22T11:52:59;10.13;;;6.57;;
74541;SDS011;63015;45.378;20.360;2023-06-22T11:54:59;7.55;;;6.07;;
74541;SDS011;63015;45.378;20.360;2023-06-22T11:57:00;10.00;;;6.53;;
74541;SDS011;63015;45.378;20.360;2023-06-22T11:59:01;11.18;;;6.95;;
74541;SDS011;63015;45.378;20.360;2023-06-22T12:01:01;8.88;;;6.60;;
74541;SDS011;63015;45.378;20.360;2023-06-22T12:03:02;10.48;;;7.30;;
74541;SDS011;63015;45.378;20.360;2023-06-22T12:05:03;27.63;;;7.70;;
74541;SDS011;63015;45.378;20.360;2023-06-22T12:07:05;11.25;;;7.03;;
74541;SDS011;63015;45.378;20.360;2023-06-22T12:09:05;7.70;;;4.80;;